Terminal Aerodrome Forecast
Issued by NWS

Home | Current Version | Previous Version | Text Only | Print | Product List | Glossary Off
Versions: 1 2 3 4 5 6 7 8 9 10 11 12 13 14 15 16 17 18 19 20 21 22 23

000
FTUS43 KGRB 191700
TAFAUW
TAF
KAUW 191724Z 1918/2018 19014G24KT P6SM SCT080 BKN150
     FM200000 19011KT P6SM SCT070 BKN150 WS010/20035KT
     FM200200 20008KT P6SM SCT012 BKN025 WS010/22035KT
      TEMPO 2003/2006 3SM TSRA OVC012CB
     FM200700 23008KT 4SM BR OVC008
     FM201500 27010KT P6SM SCT010 BKN100=

USA.gov is the U.S. government's official web portal to all federal, state and local government web resources and services.